Time,TemperatureF,DewpointF,PressureIn,WindDirection,WindDirectionDegrees,WindSpeedMPH,WindSpeedGustMPH,Humidity,HourlyPrecipIn,Conditions,Clouds,dailyrainin,SolarRadiationWatts/m^2,SoftwareType,DateUTC
2013-11-14 00:01:00,57.0,21.0,-100.00,ESE,121,0.0,5.0,24,0.00,,,0.00,0.000000,,2013-11-14 08:01:00,
2013-11-14 00:12:00,57.0,21.0,-100.00,ESE,121,0.0,5.0,24,0.00,,,0.00,0.000000,,2013-11-14 08:12:00,
2013-11-14 00:42:00,54.0,20.0,-100.00,SE,127,0.0,4.0,26,0.00,,,0.00,0.000000,,2013-11-14 08:42:00,
2013-11-14 00:53:00,54.0,20.0,-100.00,SE,127,0.0,4.0,26,0.00,,,0.00,0.000000,,2013-11-14 08:53:00,
2013-11-14 01:02:00,54.0,20.0,-100.00,SE,127,0.0,4.0,26,0.00,,,0.00,0.000000,,2013-11-14 09:02:00,
2013-11-14 01:11:00,54.0,20.0,-100.00,SE,127,0.0,4.0,26,0.00,,,0.00,0.000000,,2013-11-14 09:11:00,
2013-11-14 01:43:00,61.0,17.0,-100.00,East,90,5.0,10.0,18,0.00,,,0.00,0.000000,,2013-11-14 09:43:00,
2013-11-14 01:53:00,61.0,17.0,-100.00,East,90,5.0,10.0,18,0.00,,,0.00,0.000000,,2013-11-14 09:53:00,
2013-11-14 02:03:00,61.0,17.0,-100.00,East,90,5.0,10.0,18,0.00,,,0.00,0.000000,,2013-11-14 10:03:00,
2013-11-14 02:12:00,61.0,17.0,-100.00,East,90,5.0,10.0,18,0.00,,,0.00,0.000000,,2013-11-14 10:12:00,
2013-11-14 02:42:00,61.0,16.0,-100.00,ENE,73,7.0,10.0,17,0.00,,,0.00,0.000000,,2013-11-14 10:42:00,
2013-11-14 02:52:00,61.0,16.0,-100.00,ENE,73,7.0,10.0,17,0.00,,,0.00,0.000000,,2013-11-14 10:52:00,
2013-11-14 03:02:00,61.0,16.0,-100.00,ENE,73,7.0,10.0,17,0.00,,,0.00,0.000000,,2013-11-14 11:02:00,
2013-11-14 03:11:00,61.0,16.0,-100.00,ENE,73,7.0,10.0,17,0.00,,,0.00,0.000000,,2013-11-14 11:11:00,
2013-11-14 03:42:00,60.0,16.0,-100.00,East,84,5.0,12.0,18,0.00,,,0.00,0.000000,,2013-11-14 11:42:00,
2013-11-14 03:52:00,60.0,16.0,-100.00,East,84,5.0,12.0,18,0.00,,,0.00,0.000000,,2013-11-14 11:52:00,
2013-11-14 04:02:00,60.0,16.0,-100.00,East,84,5.0,12.0,18,0.00,,,0.00,0.000000,,2013-11-14 12:02:00,
2013-11-14 04:12:00,60.0,16.0,-100.00,East,84,5.0,12.0,18,0.00,,,0.00,0.000000,,2013-11-14 12:12:00,
2013-11-14 04:42:00,62.0,18.0,-100.00,East,89,6.0,14.0,18,0.00,,,0.00,0.000000,,2013-11-14 12:42:00,
2013-11-14 04:52:00,62.0,18.0,-100.00,East,89,6.0,14.0,18,0.00,,,0.00,0.000000,,2013-11-14 12:52:00,
2013-11-14 05:01:00,62.0,18.0,-100.00,East,89,6.0,14.0,18,0.00,,,0.00,0.000000,,2013-11-14 13:01:00,
2013-11-14 05:11:00,62.0,18.0,-100.00,East,89,6.0,14.0,18,0.00,,,0.00,0.000000,,2013-11-14 13:11:00,
2013-11-14 05:42:00,60.0,18.0,-100.00,East,96,6.0,13.0,19,-99.99,,,0.00,0.000000,,2013-11-14 13:42:00,
2013-11-14 05:52:00,60.0,18.0,-100.00,East,96,6.0,13.0,19,-99.99,,,0.00,0.000000,,2013-11-14 13:52:00,
2013-11-14 06:02:00,60.0,18.0,-100.00,East,96,6.0,13.0,19,-99.99,,,0.00,0.000000,,2013-11-14 14:02:00,
2013-11-14 06:11:00,60.0,18.0,-100.00,East,96,6.0,13.0,19,-99.99,,,0.00,0.000000,,2013-11-14 14:11:00,
2013-11-14 06:42:00,59.0,18.0,-100.00,ESE,106,2.0,12.0,20,0.00,,,0.00,0.000000,,2013-11-14 14:42:00,
2013-11-14 06:52:00,59.0,18.0,-100.00,ESE,106,2.0,12.0,20,0.00,,,0.00,0.000000,,2013-11-14 14:52:00,
2013-11-14 07:02:00,59.0,18.0,-100.00,ESE,106,2.0,12.0,20,0.00,,,0.00,0.000000,,2013-11-14 15:02:00,
2013-11-14 07:11:00,59.0,18.0,-100.00,ESE,106,2.0,12.0,20,0.00,,,0.00,0.000000,,2013-11-14 15:11:00,
2013-11-14 07:43:00,63.0,20.0,-100.00,ESE,111,2.0,7.0,19,0.00,,,0.00,40.000000,,2013-11-14 15:43:00,
2013-11-14 07:53:00,63.0,20.0,-100.00,ESE,111,2.0,7.0,19,0.00,,,0.00,40.000000,,2013-11-14 15:53:00,
2013-11-14 08:03:00,63.0,20.0,-100.00,ESE,111,2.0,7.0,19,0.00,,,0.00,40.000000,,2013-11-14 16:03:00,
2013-11-14 08:13:00,63.0,20.0,-100.00,ESE,111,2.0,7.0,19,0.00,,,0.00,40.000000,,2013-11-14 16:13:00,
2013-11-14 10:52:00,79.0,24.0,-100.00,WNW,285,2.0,7.0,13,0.00,,,0.00,643.000000,,2013-11-14 18:52:00,
2013-11-14 11:01:00,79.0,24.0,-100.00,WNW,285,2.0,7.0,13,0.00,,,0.00,643.000000,,2013-11-14 19:01:00,
2013-11-14 11:42:00,79.0,22.0,-100.00,WNW,291,4.0,13.0,12,0.00,,,0.00,769.000000,,2013-11-14 19:42:00,
2013-11-14 11:52:00,79.0,22.0,-100.00,WNW,291,4.0,13.0,12,0.00,,,0.00,769.000000,,2013-11-14 19:52:00,
2013-11-14 12:02:00,79.0,22.0,-100.00,WNW,291,4.0,13.0,12,0.00,,,0.00,769.000000,,2013-11-14 20:02:00,
2013-11-14 12:12:00,79.0,22.0,-100.00,WNW,291,4.0,13.0,12,0.00,,,0.00,769.000000,,2013-11-14 20:12:00,
2013-11-14 12:42:00,79.0,22.0,-100.00,West,279,5.0,12.0,12,0.00,,,0.00,830.000000,,2013-11-14 20:42:00,
2013-11-14 12:52:00,79.0,22.0,-100.00,West,279,5.0,12.0,12,0.00,,,0.00,830.000000,,2013-11-14 20:52:00,
2013-11-14 13:02:00,79.0,22.0,-100.00,West,279,5.0,12.0,12,0.00,,,0.00,830.000000,,2013-11-14 21:02:00,
2013-11-14 13:11:00,79.0,22.0,-100.00,West,279,5.0,12.0,12,0.00,,,0.00,830.000000,,2013-11-14 21:11:00,
2013-11-14 13:43:00,78.0,21.0,-100.00,WNW,291,6.0,15.0,12,0.00,,,0.00,781.000000,,2013-11-14 21:43:00,
2013-11-14 13:53:00,78.0,21.0,-100.00,WNW,291,6.0,15.0,12,0.00,,,0.00,781.000000,,2013-11-14 21:53:00,
2013-11-14 14:03:00,78.0,21.0,-100.00,WNW,291,6.0,15.0,12,0.00,,,0.00,781.000000,,2013-11-14 22:03:00,
2013-11-14 14:13:00,78.0,21.0,-100.00,WNW,291,6.0,15.0,12,0.00,,,0.00,781.000000,,2013-11-14 22:13:00,
2013-11-14 14:43:00,77.0,22.0,-100.00,WNW,297,5.0,16.0,13,0.00,,,0.00,653.000000,,2013-11-14 22:43:00,
2013-11-14 14:53:00,77.0,22.0,-100.00,WNW,297,5.0,16.0,13,0.00,,,0.00,653.000000,,2013-11-14 22:53:00,
2013-11-14 15:02:00,77.0,22.0,-100.00,WNW,297,5.0,16.0,13,0.00,,,0.00,653.000000,,2013-11-14 23:02:00,
2013-11-14 15:12:00,77.0,22.0,-100.00,WNW,297,5.0,16.0,13,0.00,,,0.00,653.000000,,2013-11-14 23:12:00,
2013-11-14 15:43:00,73.0,21.0,-100.00,WNW,303,4.0,12.0,14,0.00,,,0.00,463.000000,,2013-11-14 23:43:00,
2013-11-14 15:52:00,73.0,21.0,-100.00,WNW,303,4.0,12.0,14,0.00,,,0.00,463.000000,,2013-11-14 23:52:00,
2013-11-14 16:01:00,73.0,21.0,-100.00,WNW,303,4.0,12.0,14,0.00,,,0.00,463.000000,,2013-11-15 00:01:00,
2013-11-14 16:11:00,73.0,21.0,-100.00,WNW,303,4.0,12.0,14,0.00,,,0.00,463.000000,,2013-11-15 00:11:00,
2013-11-14 16:42:00,70.0,25.0,-100.00,West,281,6.0,15.0,18,0.00,,,0.00,215.000000,,2013-11-15 00:42:00,
2013-11-14 16:52:00,70.0,25.0,-100.00,West,281,6.0,15.0,18,0.00,,,0.00,215.000000,,2013-11-15 00:52:00,
2013-11-14 17:01:00,70.0,25.0,-100.00,West,281,6.0,15.0,18,0.00,,,0.00,215.000000,,2013-11-15 01:01:00,
2013-11-14 17:12:00,70.0,25.0,-100.00,West,281,6.0,15.0,18,0.00,,,0.00,215.000000,,2013-11-15 01:12:00,
2013-11-14 17:42:00,62.0,24.0,-100.00,NNW,337,0.0,13.0,23,0.00,,,0.00,9.000000,,2013-11-15 01:42:00,
2013-11-14 17:52:00,62.0,24.0,-100.00,NNW,337,0.0,13.0,23,0.00,,,0.00,9.000000,,2013-11-15 01:52:00,
2013-11-14 18:02:00,62.0,24.0,-100.00,NNW,337,0.0,13.0,23,0.00,,,0.00,9.000000,,2013-11-15 02:02:00,
2013-11-14 18:11:00,62.0,24.0,-100.00,NNW,337,0.0,13.0,23,0.00,,,0.00,9.000000,,2013-11-15 02:11:00,
2013-11-14 18:42:00,57.0,23.0,-100.00,NNE,15,0.0,6.0,27,0.00,,,0.00,0.000000,,2013-11-15 02:42:00,
2013-11-14 18:52:00,57.0,23.0,-100.00,NNE,15,0.0,6.0,27,0.00,,,0.00,0.000000,,2013-11-15 02:52:00,
2013-11-14 19:02:00,57.0,23.0,-100.00,NNE,15,0.0,6.0,27,0.00,,,0.00,0.000000,,2013-11-15 03:02:00,
2013-11-14 19:12:00,57.0,23.0,-100.00,NNE,15,0.0,6.0,27,0.00,,,0.00,0.000000,,2013-11-15 03:12:00,
2013-11-14 19:44:00,55.0,23.0,-100.00,NNW,344,0.0,5.0,29,0.00,,,0.00,0.000000,,2013-11-15 03:44:00,
2013-11-14 19:54:00,55.0,23.0,-100.00,NNW,344,0.0,5.0,29,0.00,,,0.00,0.000000,,2013-11-15 03:54:00,
2013-11-14 20:04:00,55.0,23.0,-100.00,NNW,344,0.0,5.0,29,0.00,,,0.00,0.000000,,2013-11-15 04:04:00,
2013-11-14 20:14:00,55.0,23.0,-100.00,NNW,344,0.0,5.0,29,0.00,,,0.00,0.000000,,2013-11-15 04:14:00,
2013-11-14 20:43:00,52.0,22.0,-100.00,North,4,0.0,4.0,30,0.00,,,0.00,0.000000,,2013-11-15 04:43:00,
2013-11-14 20:53:00,52.0,22.0,-100.00,North,4,0.0,4.0,30,0.00,,,0.00,0.000000,,2013-11-15 04:53:00,
2013-11-14 21:03:00,52.0,22.0,-100.00,North,4,0.0,4.0,30,0.00,,,0.00,0.000000,,2013-11-15 05:03:00,
2013-11-14 21:13:00,52.0,22.0,-100.00,North,4,0.0,4.0,30,0.00,,,0.00,0.000000,,2013-11-15 05:13:00,
2013-11-14 21:44:00,53.0,22.0,-100.00,North,354,1.0,6.0,30,0.00,,,0.00,0.000000,,2013-11-15 05:44:00,
2013-11-14 21:53:00,53.0,22.0,-100.00,North,354,1.0,6.0,30,0.00,,,0.00,0.000000,,2013-11-15 05:53:00,
2013-11-14 22:02:00,53.0,22.0,-100.00,North,354,1.0,6.0,30,0.00,,,0.00,0.000000,,2013-11-15 06:02:00,
2013-11-14 22:12:00,53.0,22.0,-100.00,North,354,1.0,6.0,30,0.00,,,0.00,0.000000,,2013-11-15 06:12:00,
2013-11-14 22:43:00,51.0,23.0,-100.00,SE,136,0.0,6.0,33,0.00,,,0.00,0.000000,,2013-11-15 06:43:00,
2013-11-14 22:53:00,51.0,23.0,-100.00,SE,136,0.0,6.0,33,0.00,,,0.00,0.000000,,2013-11-15 06:53:00,
2013-11-14 23:01:00,51.0,23.0,-100.00,SE,136,0.0,6.0,33,0.00,,,0.00,0.000000,,2013-11-15 07:01:00,
2013-11-14 23:12:00,51.0,23.0,-100.00,SE,136,0.0,6.0,33,0.00,,,0.00,0.000000,,2013-11-15 07:12:00,
2013-11-14 23:42:00,54.0,26.0,-100.00,NNW,337,0.0,6.0,33,0.00,,,0.00,0.000000,,2013-11-15 07:42:00,
2013-11-14 23:52:00,54.0,26.0,-100.00,NNW,337,0.0,6.0,33,0.00,,,0.00,0.000000,,2013-11-15 07:52:00,